Sheridan, WY

8:32 AM MDT on August 30, 2014 (GMT -0600)
Johnson County | Change Station
CLOSE
Current Station
Airport
Location: Buffalo,
Elevation: 4967 ft
Nearby Weather Stations

Elev 4967 ft 44.38 °N, 106.72 °W | Updated 39 minutes ago

Clear
Clear
63 °F
Feels Like 63 °F
N
0
Wind Variable Wind from North

Today
High -- | Low -- °F
--% Chance of Precip.
Yesterday
High -- | Low -- °F
Precip. -- in
6:27 AM 7:48 PM
Waxing Crescent, 22% visible
Pressure 29.75 in
Visibility 10.0 miles
Clouds Clear
Dew Point 44 °F
Humidity 50%
Rainfall 0.00 in
Snow Depth Not available.
UV 1 out of 12
Pollen 8.50 out of 12
Air Quality Not available.
Flu Activity Not available.
METAR KBYG 301353Z AUTO 00000KT 10SM CLR 17/07 A2989 RMK AO2 SLP073 T01720067

More Conditions Fewer Conditions

Pressure 29.75 in
Visibility 10.0 miles
Clouds Clear
Dew Point 44 °F
Humidity 50%
Rainfall 0.00 in
Snow Depth Not available.
UV 1 out of 12
Pollen 8.50 out of 12
Air Quality Not available.
Flu Activity Not available.
METAR KBYG 301353Z AUTO 00000KT 10SM CLR 17/07 A2989 RMK AO2 SLP073 T01720067

More Conditions Fewer Conditions

10-Day Weather Forecast

Almanac

Astronomy

Aug. 30, 2014 Rise Set
Actual Time 6:27 AM MDT 7:48 PM MDT
Civil Twilight 5:57 AM MDT 8:18 PM MDT
Nautical Twilight 5:20 AM MDT 8:54 PM MDT
Astronomical Twilight 4:41 AM MDT 9:33 PM MDT
Moon 11:31 AM MDT 10:09 PM MDT
Length of Visible Light 14h 20m
Length of Day
13h 20m
Tomorrow will be 2m 59s shorter.
Waxing Crescent, 22% of the Moon is Illuminated
Today
Waxing Crescent
Sep 2
First Quarter
Sep 8
Full
Sep 15
Last Quarter
Sep 24
New

Today's Extremes

State Highs State Lows

Community

WunderPhotos

Upload Photos

1,748,523 photos uploaded!

WunderBlogs® & News

Nearby

Snow Depth

Station Depth Elevation
Casper Mountain 0 in 7850 ft
Sylvan Lake 0 in 8420 ft
Reno Hill 0 in 8500 ft
Base Camp 0 in 7030 ft
Gros Ventre Summit 1 in 8750 ft

Earthquake Activity

City Distance Mag. Time & Date
No recent earthquake activity has been reported nearby.
Minimum magnitude displayed is 2.5.

Coastal Water Temperatures

Place Temperature
No Stations Reporting

Nearby Weather Stations